createdAt,value
2019-04-06T00:03:28.830Z,57.80
2019-04-06T00:06:17.047Z,57.20
2019-04-06T00:09:25.597Z,57.07
2019-04-06T00:12:13.482Z,67.67
2019-04-06T00:14:49.980Z,56.37
2019-04-06T00:17:37.847Z,60.87
2019-04-06T00:20:25.693Z,56.90
2019-04-06T00:23:13.522Z,54.23
2019-04-06T00:26:01.365Z,55.53
2019-04-06T00:28:49.190Z,57.73
2019-04-06T00:31:56.159Z,57.27
2019-04-06T00:34:43.976Z,57.57
2019-04-06T00:37:32.099Z,61.20
2019-04-06T00:40:19.959Z,58.90
2019-04-06T00:43:01.246Z,60.07
2019-04-06T00:45:41.936Z,63.13
2019-04-06T00:48:22.624Z,59.73
2019-04-06T00:51:03.472Z,62.30
2019-04-06T00:53:44.338Z,57.87
2019-04-06T00:56:25.016Z,58.80
2019-04-06T00:59:06.129Z,58.23
2019-04-06T01:01:47.236Z,60.20
2019-04-06T01:04:27.971Z,58.40
2019-04-06T01:07:08.305Z,60.80
2019-04-06T01:09:49.108Z,57.40
2019-04-06T01:12:30.200Z,56.50
2019-04-06T01:15:11.022Z,56.17
2019-04-06T01:17:51.626Z,54.60
2019-04-06T01:20:32.542Z,54.83
2019-04-06T01:23:13.139Z,55.13
2019-04-06T01:25:53.890Z,56.03
2019-04-06T01:28:34.815Z,56.50
2019-04-06T01:31:15.891Z,56.83
2019-04-06T01:33:58.813Z,52.93
2019-04-06T01:36:39.330Z,52.63
2019-04-06T01:39:20.259Z,54.13
2019-04-06T01:42:01.166Z,56.77
2019-04-06T01:44:42.116Z,54.53
2019-04-06T01:47:22.658Z,55.17
2019-04-06T01:50:03.403Z,53.47
2019-04-06T01:52:43.985Z,59.67
2019-04-06T01:55:25.103Z,53.00
2019-04-06T01:58:06.003Z,57.60
2019-04-06T02:00:48.023Z,53.70
2019-04-06T02:03:29.395Z,57.00
2019-04-06T02:06:10.229Z,54.33
2019-04-06T02:08:50.791Z,53.77
2019-04-06T02:11:31.952Z,55.17
2019-04-06T02:14:12.439Z,57.20
2019-04-06T02:16:52.890Z,58.93
2019-04-06T02:19:33.657Z,53.13
2019-04-06T02:22:14.459Z,53.60
2019-04-06T02:24:55.293Z,60.47
2019-04-06T02:27:35.745Z,56.73
2019-04-06T02:30:44.314Z,54.70
2019-04-06T02:33:51.380Z,52.53
2019-04-06T02:36:58.359Z,57.10
2019-04-06T02:40:07.719Z,55.77
2019-04-06T02:43:14.333Z,55.03
2019-04-06T02:45:54.601Z,53.47
2019-04-06T02:48:35.755Z,53.50
2019-04-06T02:51:04.567Z,53.57
2019-04-06T02:53:52.379Z,54.27
2019-04-06T02:56:20.817Z,53.87
2019-04-06T02:59:08.713Z,58.63
2019-04-06T03:01:56.485Z,56.73
2019-04-06T03:04:44.342Z,55.57
2019-04-06T03:07:32.228Z,53.30
2019-04-06T03:10:20.163Z,55.07
2019-04-06T03:12:48.666Z,53.90
2019-04-06T03:15:36.578Z,56.30
2019-04-06T03:18:24.434Z,55.30
2019-04-06T03:21:12.287Z,55.40
2019-04-06T03:23:50.197Z,54.43
2019-04-06T03:29:25.911Z,55.77
2019-04-06T03:32:13.751Z,56.40
2019-04-06T03:35:02.414Z,57.23
2019-04-06T03:37:50.609Z,56.33
2019-04-06T03:40:38.728Z,59.77
2019-04-06T03:43:20.063Z,52.47
2019-04-06T03:46:01.489Z,53.20
2019-04-06T03:48:42.139Z,54.30
2019-04-06T03:51:22.564Z,52.70
2019-04-06T03:54:03.297Z,56.33
2019-04-06T03:56:44.509Z,54.23
2019-04-06T03:59:25.343Z,53.67
2019-04-06T04:02:06.045Z,56.53
2019-04-06T04:04:34.628Z,51.80
2019-04-06T04:07:22.834Z,57.83
2019-04-06T04:10:31.559Z,56.40
2019-04-06T04:13:19.559Z,55.87
2019-04-06T04:16:07.583Z,59.67
2019-04-06T04:18:36.395Z,58.37
2019-04-06T04:21:24.371Z,54.17
2019-04-06T04:24:12.732Z,52.23
2019-04-06T04:26:41.431Z,59.47
2019-04-06T04:29:29.506Z,48.27
2019-04-06T04:32:17.454Z,53.50
2019-04-06T04:35:06.007Z,54.83
2019-04-06T04:37:34.767Z,54.27
2019-04-06T04:40:24.047Z,55.50
2019-04-06T04:43:12.216Z,52.57
2019-04-06T04:45:53.140Z,60.67
2019-04-06T04:48:33.986Z,57.30
2019-04-06T04:51:15.456Z,54.53
2019-04-06T04:53:55.970Z,35.87
2019-04-06T04:56:36.988Z,53.60
2019-04-06T04:59:05.738Z,59.80
2019-04-06T05:01:34.661Z,50.30
2019-04-06T05:04:22.709Z,56.47
2019-04-06T05:07:11.393Z,56.30
2019-04-06T05:09:59.266Z,53.87
2019-04-06T05:12:47.369Z,58.60
2019-04-06T05:15:54.812Z,33.73
2019-04-06T05:18:43.094Z,52.33
2019-04-06T05:21:31.030Z,40.07
2019-04-06T05:24:19.111Z,57.70
2019-04-06T05:27:07.080Z,26.50
2019-04-06T05:29:55.435Z,56.37
2019-04-06T05:32:36.777Z,54.63
2019-04-06T05:35:45.461Z,56.53
2019-04-06T05:38:33.437Z,59.40
2019-04-06T05:41:21.457Z,57.10
2019-04-06T05:44:09.938Z,59.97
2019-04-06T05:46:57.939Z,62.63
2019-04-06T05:49:46.030Z,63.17
2019-04-06T05:52:33.948Z,68.50
2019-04-06T05:55:24.370Z,64.53
2019-04-06T05:58:07.174Z,65.17
2019-04-06T06:00:47.369Z,66.50
2019-04-06T06:03:16.147Z,66.80
2019-04-06T06:06:04.578Z,73.43
2019-04-06T06:08:52.808Z,73.70
2019-04-06T06:11:40.775Z,74.67
2019-04-06T06:14:28.700Z,74.57
2019-04-06T06:17:16.639Z,20.70
2019-04-06T06:20:25.297Z,20.93
2019-04-06T06:23:13.623Z,50.20
2019-04-06T06:26:02.446Z,43.43
2019-04-06T06:28:50.548Z,77.47
2019-04-06T06:31:38.830Z,75.03
2019-04-06T06:34:27.268Z,17.07
2019-04-06T06:37:17.207Z,81.73
2019-04-06T06:40:06.798Z,12.60
2019-04-06T06:42:55.401Z,13.50
2019-04-06T06:45:43.842Z,12.67
2019-04-06T06:48:12.794Z,12.80
2019-04-06T06:51:00.858Z,13.57
2019-04-06T06:53:48.993Z,76.33
2019-04-06T06:56:37.761Z,55.67
2019-04-06T07:04:57.553Z,64.37
2019-04-06T07:10:53.141Z,77.63
2019-04-06T07:13:41.226Z,77.37
2019-04-06T07:16:10.153Z,73.10
2019-04-06T07:18:59.178Z,80.00
2019-04-06T07:21:47.307Z,11.20
2019-04-06T07:24:35.451Z,72.70
2019-04-06T07:27:04.444Z,33.63
2019-04-06T07:29:52.586Z,73.33
2019-04-06T07:32:40.782Z,74.10
2019-04-06T07:35:29.104Z,74.70
2019-04-06T07:38:17.410Z,68.13
2019-04-06T07:41:05.612Z,74.73
2019-04-06T07:43:34.402Z,73.67
2019-04-06T07:46:22.686Z,71.27
2019-04-06T07:49:09.122Z,70.17
2019-04-06T07:51:34.756Z,35.43
2019-04-06T07:54:23.794Z,69.17
2019-04-06T07:57:12.562Z,18.63
2019-04-06T07:59:42.082Z,61.57
2019-04-06T08:02:30.220Z,64.73
2019-04-06T08:05:18.630Z,40.53
2019-04-06T08:08:06.534Z,42.20
2019-04-06T08:10:55.337Z,64.03
2019-04-06T08:13:56.076Z,68.13
2019-04-06T08:16:33.523Z,50.77
2019-04-06T08:19:21.443Z,12.50
2019-04-06T08:22:09.530Z,12.43
2019-04-06T08:24:57.951Z,48.43
2019-04-06T08:27:45.914Z,34.87
2019-04-06T08:30:44.689Z,59.60
2019-04-06T08:33:04.664Z,55.87
2019-04-06T08:35:52.736Z,57.47
2019-04-06T08:38:40.701Z,65.90
2019-04-06T08:41:28.677Z,65.70
2019-04-06T08:44:16.769Z,57.83
2019-04-06T08:47:06.263Z,59.43
2019-04-06T08:49:34.841Z,63.47
2019-04-06T08:52:22.710Z,63.07
2019-04-06T08:54:51.699Z,58.40
2019-04-06T08:57:40.398Z,60.17
2019-04-06T09:00:29.369Z,59.20
2019-04-06T09:03:18.271Z,60.40
2019-04-06T09:06:06.980Z,60.33
2019-04-06T09:08:54.842Z,61.13
2019-04-06T09:12:05.385Z,61.23
2019-04-06T09:14:33.085Z,59.03
2019-04-06T09:17:21.516Z,55.57
2019-04-06T09:20:09.919Z,61.07
2019-04-06T09:22:58.385Z,59.60
2019-04-06T09:29:00.376Z,61.47
2019-04-06T09:31:50.543Z,62.50
2019-04-06T09:34:40.008Z,58.27
2019-04-06T09:37:28.873Z,63.33
2019-04-06T09:40:19.670Z,56.07
2019-04-06T09:43:08.718Z,60.90
2019-04-06T09:46:16.788Z,62.53
2019-04-06T09:54:54.405Z,55.27
2019-04-06T09:57:44.587Z,56.57
2019-04-06T10:00:53.575Z,52.17
2019-04-06T10:03:39.031Z,53.40
2019-04-06T10:06:22.379Z,57.73
2019-04-06T10:09:22.717Z,60.03
2019-04-06T10:12:22.720Z,60.27
2019-04-06T10:15:05.612Z,57.07
2019-04-06T10:17:53.758Z,52.03
2019-04-06T10:21:01.418Z,51.50
2019-04-06T10:24:08.702Z,47.13
2019-04-06T10:30:11.122Z,52.17
2019-04-06T10:33:18.573Z,48.00
2019-04-06T10:36:25.998Z,31.83
2019-04-06T10:42:29.478Z,43.40
2019-04-06T10:45:37.533Z,42.73
2019-04-06T10:51:41.171Z,34.43
2019-04-06T10:54:48.468Z,45.10
2019-04-06T10:57:36.710Z,48.83
2019-04-06T11:09:41.874Z,50.63
2019-04-06T11:12:49.077Z,34.67
2019-04-06T11:18:51.316Z,19.77
2019-04-06T11:21:58.410Z,40.10
2019-04-06T11:24:46.329Z,35.17
2019-04-06T11:27:53.395Z,38.13
2019-04-06T11:31:00.783Z,17.77
2019-04-06T11:34:08.056Z,40.83
2019-04-06T11:36:55.772Z,40.10
2019-04-06T11:40:04.300Z,42.13
2019-04-06T11:43:11.513Z,16.47
2019-04-06T11:46:18.486Z,40.57
2019-04-06T11:49:19.003Z,37.27
2019-04-06T11:52:01.914Z,38.10
2019-04-06T11:55:02.563Z,29.03
2019-04-06T12:01:01.602Z,33.97
2019-04-06T12:07:09.403Z,35.60
2019-04-06T12:09:54.231Z,35.13
2019-04-06T12:12:36.758Z,33.73
2019-04-06T12:15:45.587Z,25.93
2019-04-06T12:18:52.771Z,17.30
2019-04-06T12:21:59.934Z,32.70
2019-04-06T12:25:06.955Z,12.03
2019-04-06T12:31:08.855Z,26.17
2019-04-06T12:34:16.086Z,33.57
2019-04-06T12:37:01.561Z,34.63
2019-04-06T12:39:52.752Z,35.97
2019-04-06T12:42:46.118Z,12.67
2019-04-06T12:45:47.196Z,29.40
2019-04-06T12:48:47.489Z,11.13
2019-04-06T12:51:46.375Z,29.97
2019-04-06T12:59:53.697Z,31.13
2019-04-06T13:05:57.657Z,29.80
2019-04-06T13:08:45.680Z,31.33
2019-04-06T13:11:52.988Z,30.33
2019-04-06T13:15:00.277Z,30.97
2019-04-06T13:18:07.590Z,27.67
2019-04-06T13:21:14.699Z,25.90
2019-04-06T13:24:21.733Z,27.57
2019-04-06T13:30:04.276Z,24.87
2019-04-06T13:33:11.358Z,28.87
2019-04-06T13:35:59.278Z,27.60
2019-04-06T13:41:56.978Z,26.43
2019-04-06T13:47:53.449Z,16.77
2019-04-06T13:53:59.351Z,25.07
2019-04-06T13:57:06.361Z,23.83
2019-04-06T14:00:13.650Z,21.53
2019-04-06T14:08:50.843Z,24.47
2019-04-06T14:14:53.123Z,19.73
2019-04-06T14:18:00.419Z,21.10
2019-04-06T14:21:07.718Z,20.40
2019-04-06T14:24:14.742Z,17.73
2019-04-06T14:27:21.905Z,19.07
2019-04-06T14:33:25.862Z,19.90
2019-04-06T14:36:32.918Z,13.83
2019-04-06T14:42:23.872Z,16.73
2019-04-06T14:45:31.050Z,18.33
2019-04-06T14:48:37.801Z,9.73
2019-04-06T14:57:35.448Z,13.53
2019-04-06T15:00:42.509Z,19.70
2019-04-06T15:03:50.063Z,9.77
2019-04-06T15:15:24.238Z,16.30
2019-04-06T15:18:31.478Z,20.07
2019-04-06T15:21:38.464Z,16.47
2019-04-06T15:24:45.455Z,18.63
2019-04-06T15:27:52.667Z,17.50
2019-04-06T15:30:59.698Z,18.47
2019-04-06T15:34:06.695Z,18.50
2019-04-06T15:37:07.760Z,12.33
2019-04-06T15:40:07.632Z,24.33
2019-04-06T15:42:53.160Z,18.07
2019-04-06T15:45:35.506Z,19.50
2019-04-06T15:48:36.489Z,21.00
2019-04-06T15:51:24.770Z,16.40
2019-04-06T15:57:19.585Z,13.17
2019-04-06T16:00:05.483Z,31.67
2019-04-06T16:02:53.402Z,33.70
2019-04-06T16:06:00.695Z,31.20
2019-04-06T16:09:07.686Z,19.90
2019-04-06T16:18:12.198Z,29.17
2019-04-06T16:21:19.512Z,19.00
2019-04-06T16:27:21.618Z,29.20
2019-04-06T16:36:22.749Z,28.90
2019-04-06T16:42:29.237Z,28.93
2019-04-06T16:45:36.737Z,32.37
2019-04-06T16:48:44.423Z,29.47
2019-04-06T16:51:29.846Z,30.77
2019-04-06T16:54:15.388Z,31.10
2019-04-06T16:57:16.030Z,30.53
2019-04-06T17:00:19.550Z,31.07
2019-04-06T17:06:14.039Z,31.47
2019-04-06T17:09:21.138Z,34.03
2019-04-06T17:12:28.284Z,36.70
2019-04-06T17:18:30.324Z,30.47
2019-04-06T17:21:37.311Z,29.77
2019-04-06T17:24:44.731Z,31.33
2019-04-06T17:30:50.862Z,31.60
2019-04-06T17:33:57.990Z,32.37
2019-04-06T17:37:05.244Z,31.70
2019-04-06T17:43:07.352Z,35.50
2019-04-06T17:46:14.462Z,31.10
2019-04-06T17:49:23.959Z,31.83
2019-04-06T17:52:05.698Z,30.67
2019-04-06T17:57:49.069Z,32.80
2019-04-06T18:00:37.234Z,30.87
2019-04-06T18:03:25.231Z,31.27
2019-04-06T18:06:32.499Z,31.77
2019-04-06T18:12:15.280Z,31.07
2019-04-06T18:15:03.962Z,33.47
2019-04-06T18:17:52.073Z,31.77
2019-04-06T18:20:32.688Z,38.07
2019-04-06T18:23:13.384Z,33.67
2019-04-06T18:25:54.365Z,33.23
2019-04-06T18:28:35.421Z,31.93
2019-04-06T18:31:23.092Z,32.53
2019-04-06T18:34:11.481Z,35.50
2019-04-06T18:37:00.648Z,33.97
2019-04-06T18:42:44.184Z,31.57
2019-04-06T18:48:42.126Z,32.30
2019-04-06T18:51:31.687Z,31.20
2019-04-06T18:54:20.977Z,33.40
2019-04-06T18:57:08.874Z,32.70
2019-04-06T18:59:57.117Z,36.37
2019-04-06T19:02:46.296Z,33.90
2019-04-06T19:05:34.535Z,33.37
2019-04-06T19:08:05.170Z,38.97
2019-04-06T19:10:55.501Z,33.90
2019-04-06T19:13:36.421Z,34.23
2019-04-06T19:16:17.351Z,34.63
2019-04-06T19:18:58.251Z,34.57
2019-04-06T19:21:39.000Z,34.27
2019-04-06T19:24:20.275Z,37.57
2019-04-06T19:26:48.901Z,35.07
2019-04-06T19:29:37.239Z,35.97
2019-04-06T19:32:25.128Z,41.63
2019-04-06T19:35:13.233Z,33.03
2019-04-06T19:38:02.138Z,35.47
2019-04-06T19:40:50.403Z,40.93
2019-04-06T19:43:38.277Z,34.60
2019-04-06T19:46:28.346Z,34.63
2019-04-06T19:49:17.854Z,34.33
2019-04-06T19:51:59.565Z,33.63
2019-04-06T19:54:28.275Z,34.73
2019-04-06T19:57:16.101Z,36.70
2019-04-06T20:00:24.721Z,34.77
2019-04-06T20:03:12.519Z,35.17
2019-04-06T20:06:00.662Z,38.23
2019-04-06T20:08:48.537Z,33.30
2019-04-06T20:11:36.415Z,35.77
2019-04-06T20:14:05.178Z,36.33
2019-04-06T20:16:53.005Z,38.93
2019-04-06T20:19:40.806Z,38.87
2019-04-06T20:22:28.584Z,40.97
2019-04-06T20:24:57.049Z,40.70
2019-04-06T20:27:45.096Z,36.07
2019-04-06T20:30:32.994Z,35.03
2019-04-06T20:33:01.630Z,36.37
2019-04-06T20:35:51.202Z,34.70
2019-04-06T20:38:39.072Z,36.30
2019-04-06T20:41:27.110Z,35.57
2019-04-06T20:44:14.964Z,36.77
2019-04-06T20:47:04.152Z,35.73
2019-04-06T20:49:52.934Z,36.83
2019-04-06T20:52:34.324Z,36.40
2019-04-06T20:55:15.443Z,37.90
2019-04-06T20:57:56.228Z,37.57
2019-04-06T21:00:37.928Z,40.37
2019-04-06T21:03:06.409Z,37.20
2019-04-06T21:05:54.267Z,38.00
2019-04-06T21:08:42.069Z,36.60
2019-04-06T21:11:30.141Z,37.30
2019-04-06T21:14:17.908Z,39.87
2019-04-06T21:17:05.769Z,40.57
2019-04-06T21:19:34.233Z,39.73
2019-04-06T21:22:22.056Z,42.10
2019-04-06T21:25:11.217Z,37.03
2019-04-06T21:28:00.215Z,40.47
2019-04-06T21:30:48.074Z,39.10
2019-04-06T21:33:17.073Z,37.57
2019-04-06T21:36:06.310Z,39.83
2019-04-06T21:38:34.744Z,43.53
2019-04-06T21:41:23.045Z,42.33
2019-04-06T21:47:20.554Z,43.87
2019-04-06T21:50:09.013Z,37.93
2019-04-06T21:52:56.809Z,39.40
2019-04-06T21:55:25.245Z,38.50
2019-04-06T21:58:13.080Z,39.07
2019-04-06T22:03:52.794Z,38.77
2019-04-06T22:06:33.011Z,40.27
2019-04-06T22:09:14.230Z,41.30
2019-04-06T22:11:54.862Z,40.67
2019-04-06T22:14:23.866Z,42.07
2019-04-06T22:17:13.165Z,38.87
2019-04-06T22:20:00.959Z,37.83
2019-04-06T22:22:49.308Z,39.07
2019-04-06T22:25:38.383Z,38.10
2019-04-06T22:28:26.746Z,39.23
2019-04-06T22:34:10.884Z,39.63
2019-04-06T22:37:18.000Z,40.63
2019-04-06T22:40:06.148Z,41.20
2019-04-06T22:42:34.611Z,45.57
2019-04-06T22:45:03.951Z,38.23
2019-04-06T22:47:51.849Z,40.63
2019-04-06T22:50:39.681Z,39.47
2019-04-06T22:53:27.455Z,37.10
2019-04-06T22:56:15.621Z,41.10
2019-04-06T22:58:44.827Z,38.23
2019-04-06T23:10:12.278Z,37.37
2019-04-06T23:13:00.790Z,38.57
2019-04-06T23:15:49.874Z,38.33
2019-04-06T23:18:38.167Z,41.97
2019-04-06T23:21:25.967Z,37.33
2019-04-06T23:24:13.763Z,39.70
2019-04-06T23:27:01.543Z,39.30
2019-04-06T23:29:49.405Z,38.27
2019-04-06T23:32:37.574Z,42.20
2019-04-06T23:35:25.431Z,37.53
2019-04-06T23:38:13.565Z,38.20
2019-04-06T23:41:01.364Z,39.10
2019-04-06T23:43:49.174Z,39.63
2019-04-06T23:46:37.368Z,41.97
2019-04-06T23:49:25.765Z,40.77
2019-04-06T23:52:15.061Z,40.40
2019-04-06T23:55:03.674Z,38.83
2019-04-06T23:57:44.648Z,38.83
